sensor_id;sensor_type;location;lat;lon;timestamp;P1;durP1;ratioP1;P2;durP2;ratioP2
83550;SDS011;74617;47.082;15.524;2024-02-16T00:00:51;2.22;;;1.15;;
83550;SDS011;74617;47.082;15.524;2024-02-16T00:03:19;2.40;;;0.93;;
83550;SDS011;74617;47.082;15.524;2024-02-16T00:05:45;2.85;;;1.27;;
83550;SDS011;74617;47.082;15.524;2024-02-16T00:08:11;1.60;;;0.80;;
83550;SDS011;74617;47.082;15.524;2024-02-16T00:10:38;2.55;;;1.10;;
83550;SDS011;74617;47.082;15.524;2024-02-16T00:13:03;1.67;;;0.75;;
83550;SDS011;74617;47.082;15.524;2024-02-16T00:15:29;2.55;;;1.00;;
83550;SDS011;74617;47.082;15.524;2024-02-16T00:17:54;5.68;;;1.20;;
83550;SDS011;74617;47.082;15.524;2024-02-16T00:20:20;3.35;;;1.05;;
83550;SDS011;74617;47.082;15.524;2024-02-16T00:22:47;2.08;;;0.90;;
83550;SDS011;74617;47.082;15.524;2024-02-16T00:25:13;3.70;;;1.10;;
83550;SDS011;74617;47.082;15.524;2024-02-16T00:27:38;2.13;;;0.93;;
83550;SDS011;74617;47.082;15.524;2024-02-16T00:30:04;2.53;;;1.08;;
83550;SDS011;74617;47.082;15.524;2024-02-16T00:32:29;2.75;;;1.17;;
83550;SDS011;74617;47.082;15.524;2024-02-16T00:34:56;2.60;;;1.00;;
83550;SDS011;74617;47.082;15.524;2024-02-16T00:37:22;3.40;;;0.90;;
83550;SDS011;74617;47.082;15.524;2024-02-16T00:39:49;2.20;;;0.75;;
83550;SDS011;74617;47.082;15.524;2024-02-16T00:42:15;1.83;;;0.90;;
83550;SDS011;74617;47.082;15.524;2024-02-16T00:44:40;1.27;;;0.75;;
83550;SDS011;74617;47.082;15.524;2024-02-16T00:47:05;3.20;;;1.20;;
83550;SDS011;74617;47.082;15.524;2024-02-16T00:49:32;3.25;;;0.90;;
83550;SDS011;74617;47.082;15.524;2024-02-16T00:51:57;2.78;;;0.93;;
83550;SDS011;74617;47.082;15.524;2024-02-16T00:54:23;2.15;;;0.90;;
83550;SDS011;74617;47.082;15.524;2024-02-16T00:56:48;4.35;;;1.30;;
83550;SDS011;74617;47.082;15.524;2024-02-16T00:59:14;1.23;;;0.70;;
83550;SDS011;74617;47.082;15.524;2024-02-16T01:01:39;1.77;;;1.13;;
83550;SDS011;74617;47.082;15.524;2024-02-16T01:04:05;2.80;;;1.20;;
83550;SDS011;74617;47.082;15.524;2024-02-16T01:06:32;1.90;;;1.05;;
83550;SDS011;74617;47.082;15.524;2024-02-16T01:08:57;1.42;;;0.80;;
83550;SDS011;74617;47.082;15.524;2024-02-16T01:11:23;2.22;;;1.00;;
83550;SDS011;74617;47.082;15.524;2024-02-16T01:13:48;1.67;;;0.77;;
83550;SDS011;74617;47.082;15.524;2024-02-16T01:16:13;2.83;;;0.80;;
83550;SDS011;74617;47.082;15.524;2024-02-16T01:18:40;2.50;;;1.00;;
83550;SDS011;74617;47.082;15.524;2024-02-16T01:21:05;2.17;;;0.90;;
83550;SDS011;74617;47.082;15.524;2024-02-16T01:23:31;1.85;;;0.95;;
83550;SDS011;74617;47.082;15.524;2024-02-16T01:25:56;2.13;;;0.93;;
83550;SDS011;74617;47.082;15.524;2024-02-16T01:28:21;1.90;;;0.90;;
83550;SDS011;74617;47.082;15.524;2024-02-16T01:30:48;3.88;;;1.10;;
83550;SDS011;74617;47.082;15.524;2024-02-16T01:33:13;2.05;;;0.80;;
83550;SDS011;74617;47.082;15.524;2024-02-16T01:35:39;1.52;;;0.77;;
83550;SDS011;74617;47.082;15.524;2024-02-16T01:38:05;1.85;;;0.93;;
83550;SDS011;74617;47.082;15.524;2024-02-16T01:40:30;1.17;;;0.60;;
83550;SDS011;74617;47.082;15.524;2024-02-16T01:42:56;1.90;;;1.15;;
83550;SDS011;74617;47.082;15.524;2024-02-16T01:45:22;2.38;;;0.90;;
83550;SDS011;74617;47.082;15.524;2024-02-16T01:47:49;1.77;;;0.85;;
83550;SDS011;74617;47.082;15.524;2024-02-16T01:50:16;1.77;;;0.85;;
83550;SDS011;74617;47.082;15.524;2024-02-16T01:52:43;2.45;;;1.08;;
83550;SDS011;74617;47.082;15.524;2024-02-16T01:55:09;2.13;;;0.77;;
83550;SDS011;74617;47.082;15.524;2024-02-16T01:57:36;0.65;;;0.43;;
83550;SDS011;74617;47.082;15.524;2024-02-16T02:00:04;1.88;;;0.88;;
83550;SDS011;74617;47.082;15.524;2024-02-16T02:02:32;3.38;;;0.88;;
83550;SDS011;74617;47.082;15.524;2024-02-16T02:04:59;3.40;;;0.70;;
83550;SDS011;74617;47.082;15.524;2024-02-16T02:07:25;2.97;;;0.93;;
83550;SDS011;74617;47.082;15.524;2024-02-16T02:09:54;1.75;;;0.75;;
83550;SDS011;74617;47.082;15.524;2024-02-16T02:12:20;2.63;;;1.00;;
83550;SDS011;74617;47.082;15.524;2024-02-16T02:14:46;2.25;;;0.82;;
83550;SDS011;74617;47.082;15.524;2024-02-16T02:17:12;1.95;;;0.88;;
83550;SDS011;74617;47.082;15.524;2024-02-16T02:19:38;1.10;;;0.70;;
83550;SDS011;74617;47.082;15.524;2024-02-16T02:22:03;0.90;;;0.52;;
83550;SDS011;74617;47.082;15.524;2024-02-16T02:24:29;1.27;;;0.70;;
83550;SDS011;74617;47.082;15.524;2024-02-16T02:26:54;2.45;;;0.90;;
83550;SDS011;74617;47.082;15.524;2024-02-16T02:29:20;2.20;;;0.90;;
83550;SDS011;74617;47.082;15.524;2024-02-16T02:31:45;2.45;;;0.90;;
83550;SDS011;74617;47.082;15.524;2024-02-16T02:34:11;2.22;;;0.80;;
83550;SDS011;74617;47.082;15.524;2024-02-16T02:36:36;2.28;;;0.70;;
83550;SDS011;74617;47.082;15.524;2024-02-16T02:39:02;3.17;;;1.30;;
83550;SDS011;74617;47.082;15.524;2024-02-16T02:41:27;2.15;;;0.90;;
83550;SDS011;74617;47.082;15.524;2024-02-16T02:43:53;1.83;;;0.70;;
83550;SDS011;74617;47.082;15.524;2024-02-16T02:46:18;1.45;;;0.60;;
83550;SDS011;74617;47.082;15.524;2024-02-16T02:48:44;1.38;;;0.70;;
83550;SDS011;74617;47.082;15.524;2024-02-16T02:51:11;2.35;;;0.90;;
83550;SDS011;74617;47.082;15.524;2024-02-16T02:53:36;1.52;;;0.70;;
83550;SDS011;74617;47.082;15.524;2024-02-16T02:56:02;1.25;;;0.60;;
83550;SDS011;74617;47.082;15.524;2024-02-16T02:58:28;1.67;;;0.60;;
83550;SDS011;74617;47.082;15.524;2024-02-16T03:00:54;2.33;;;0.88;;
83550;SDS011;74617;47.082;15.524;2024-02-16T03:03:22;2.33;;;0.73;;
83550;SDS011;74617;47.082;15.524;2024-02-16T03:05:49;1.38;;;0.70;;
83550;SDS011;74617;47.082;15.524;2024-02-16T03:08:15;2.85;;;0.82;;
83550;SDS011;74617;47.082;15.524;2024-02-16T03:10:40;4.45;;;1.08;;
83550;SDS011;74617;47.082;15.524;2024-02-16T03:13:06;1.60;;;0.82;;
83550;SDS011;74617;47.082;15.524;2024-02-16T03:15:34;1.30;;;0.65;;
83550;SDS011;74617;47.082;15.524;2024-02-16T03:18:01;0.88;;;0.52;;
83550;SDS011;74617;47.082;15.524;2024-02-16T03:20:27;2.72;;;0.82;;
83550;SDS011;74617;47.082;15.524;2024-02-16T03:22:52;1.70;;;0.80;;
83550;SDS011;74617;47.082;15.524;2024-02-16T03:25:17;1.80;;;0.82;;
83550;SDS011;74617;47.082;15.524;2024-02-16T03:27:43;1.52;;;0.60;;
83550;SDS011;74617;47.082;15.524;2024-02-16T03:30:08;2.90;;;1.08;;
83550;SDS011;74617;47.082;15.524;2024-02-16T03:32:35;2.47;;;0.93;;
83550;SDS011;74617;47.082;15.524;2024-02-16T03:35:00;1.63;;;0.90;;
83550;SDS011;74617;47.082;15.524;2024-02-16T03:37:27;1.90;;;0.73;;
83550;SDS011;74617;47.082;15.524;2024-02-16T03:39:52;1.85;;;0.93;;
83550;SDS011;74617;47.082;15.524;2024-02-16T03:42:18;1.67;;;0.90;;
83550;SDS011;74617;47.082;15.524;2024-02-16T03:44:44;1.20;;;0.60;;
83550;SDS011;74617;47.082;15.524;2024-02-16T03:47:10;1.40;;;0.70;;
83550;SDS011;74617;47.082;15.524;2024-02-16T03:49:35;1.65;;;0.98;;
83550;SDS011;74617;47.082;15.524;2024-02-16T03:52:01;2.53;;;1.00;;
83550;SDS011;74617;47.082;15.524;2024-02-16T03:54:27;1.23;;;0.80;;
83550;SDS011;74617;47.082;15.524;2024-02-16T03:56:55;1.90;;;0.75;;
83550;SDS011;74617;47.082;15.524;2024-02-16T03:59:20;1.65;;;0.73;;
83550;SDS011;74617;47.082;15.524;2024-02-16T04:01:46;2.55;;;1.00;;
83550;SDS011;74617;47.082;15.524;2024-02-16T04:04:12;2.63;;;0.80;;
83550;SDS011;74617;47.082;15.524;2024-02-16T04:06:38;1.38;;;0.65;;
83550;SDS011;74617;47.082;15.524;2024-02-16T04:09:04;1.70;;;0.60;;
83550;SDS011;74617;47.082;15.524;2024-02-16T04:11:33;1.38;;;0.70;;
83550;SDS011;74617;47.082;15.524;2024-02-16T04:13:59;1.48;;;0.63;;
83550;SDS011;74617;47.082;15.524;2024-02-16T04:16:24;2.17;;;0.80;;
83550;SDS011;74617;47.082;15.524;2024-02-16T04:18:50;1.65;;;0.82;;
83550;SDS011;74617;47.082;15.524;2024-02-16T04:21:16;2.17;;;0.75;;
83550;SDS011;74617;47.082;15.524;2024-02-16T04:23:42;2.38;;;0.80;;
83550;SDS011;74617;47.082;15.524;2024-02-16T04:26:07;1.17;;;0.57;;
83550;SDS011;74617;47.082;15.524;2024-02-16T04:28:33;1.52;;;0.75;;
83550;SDS011;74617;47.082;15.524;2024-02-16T04:30:59;1.30;;;0.68;;
83550;SDS011;74617;47.082;15.524;2024-02-16T04:33:24;3.20;;;0.98;;
83550;SDS011;74617;47.082;15.524;2024-02-16T04:35:49;1.70;;;0.60;;
83550;SDS011;74617;47.082;15.524;2024-02-16T04:38:15;0.98;;;0.60;;
83550;SDS011;74617;47.082;15.524;2024-02-16T04:40:42;1.88;;;0.82;;
83550;SDS011;74617;47.082;15.524;2024-02-16T04:43:07;1.50;;;0.80;;
83550;SDS011;74617;47.082;15.524;2024-02-16T04:45:33;3.28;;;1.08;;
83550;SDS011;74617;47.082;15.524;2024-02-16T04:48:03;1.25;;;0.70;;
83550;SDS011;74617;47.082;15.524;2024-02-16T04:50:32;1.58;;;0.80;;
83550;SDS011;74617;47.082;15.524;2024-02-16T04:52:59;1.80;;;0.90;;
83550;SDS011;74617;47.082;15.524;2024-02-16T04:55:26;1.00;;;0.68;;
83550;SDS011;74617;47.082;15.524;2024-02-16T04:57:53;2.38;;;1.10;;
83550;SDS011;74617;47.082;15.524;2024-02-16T05:00:18;2.22;;;0.90;;
83550;SDS011;74617;47.082;15.524;2024-02-16T05:02:45;1.70;;;0.80;;
83550;SDS011;74617;47.082;15.524;2024-02-16T05:05:11;1.23;;;0.55;;
83550;SDS011;74617;47.082;15.524;2024-02-16T05:07:36;2.22;;;0.73;;
83550;SDS011;74617;47.082;15.524;2024-02-16T05:10:02;4.78;;;0.85;;
83550;SDS011;74617;47.082;15.524;2024-02-16T05:12:27;2.55;;;0.80;;
83550;SDS011;74617;47.082;15.524;2024-02-16T05:14:53;0.85;;;0.60;;
83550;SDS011;74617;47.082;15.524;2024-02-16T05:17:19;1.58;;;0.80;;
83550;SDS011;74617;47.082;15.524;2024-02-16T05:19:45;1.58;;;0.75;;
83550;SDS011;74617;47.082;15.524;2024-02-16T05:22:11;1.38;;;0.55;;
83550;SDS011;74617;47.082;15.524;2024-02-16T05:24:36;1.95;;;0.77;;
83550;SDS011;74617;47.082;15.524;2024-02-16T05:27:02;1.38;;;0.73;;
83550;SDS011;74617;47.082;15.524;2024-02-16T05:29:28;1.95;;;0.60;;
83550;SDS011;74617;47.082;15.524;2024-02-16T05:31:53;3.47;;;0.80;;
83550;SDS011;74617;47.082;15.524;2024-02-16T05:34:18;0.95;;;0.68;;
83550;SDS011;74617;47.082;15.524;2024-02-16T05:36:44;1.40;;;0.60;;
83550;SDS011;74617;47.082;15.524;2024-02-16T05:39:09;1.48;;;0.70;;
83550;SDS011;74617;47.082;15.524;2024-02-16T05:41:45;1.80;;;0.77;;
83550;SDS011;74617;47.082;15.524;2024-02-16T05:44:11;1.17;;;0.68;;
83550;SDS011;74617;47.082;15.524;2024-02-16T05:46:36;1.83;;;0.77;;
83550;SDS011;74617;47.082;15.524;2024-02-16T05:49:03;1.42;;;0.65;;
83550;SDS011;74617;47.082;15.524;2024-02-16T05:51:38;1.10;;;0.50;;
83550;SDS011;74617;47.082;15.524;2024-02-16T05:54:06;1.67;;;0.98;;
83550;SDS011;74617;47.082;15.524;2024-02-16T05:56:33;1.88;;;0.90;;
83550;SDS011;74617;47.082;15.524;2024-02-16T05:58:59;1.65;;;0.82;;
83550;SDS011;74617;47.082;15.524;2024-02-16T06:01:25;1.25;;;0.60;;
83550;SDS011;74617;47.082;15.524;2024-02-16T06:03:51;2.20;;;0.98;;
83550;SDS011;74617;47.082;15.524;2024-02-16T06:06:17;1.27;;;0.80;;
83550;SDS011;74617;47.082;15.524;2024-02-16T06:08:42;3.03;;;0.93;;
83550;SDS011;74617;47.082;15.524;2024-02-16T06:11:07;3.13;;;0.82;;
83550;SDS011;74617;47.082;15.524;2024-02-16T06:13:33;1.08;;;0.80;;
83550;SDS011;74617;47.082;15.524;2024-02-16T06:15:58;1.95;;;0.88;;
83550;SDS011;74617;47.082;15.524;2024-02-16T06:18:24;1.02;;;0.50;;
83550;SDS011;74617;47.082;15.524;2024-02-16T06:20:49;2.95;;;0.60;;
83550;SDS011;74617;47.082;15.524;2024-02-16T06:23:14;1.40;;;0.70;;
83550;SDS011;74617;47.082;15.524;2024-02-16T06:25:42;1.55;;;0.57;;
83550;SDS011;74617;47.082;15.524;2024-02-16T06:28:07;1.08;;;0.57;;
83550;SDS011;74617;47.082;15.524;2024-02-16T06:30:33;1.85;;;1.00;;
83550;SDS011;74617;47.082;15.524;2024-02-16T06:32:58;1.38;;;0.70;;
83550;SDS011;74617;47.082;15.524;2024-02-16T06:35:23;1.55;;;0.77;;
83550;SDS011;74617;47.082;15.524;2024-02-16T06:37:49;1.50;;;0.80;;
83550;SDS011;74617;47.082;15.524;2024-02-16T06:40:14;1.10;;;0.60;;
83550;SDS011;74617;47.082;15.524;2024-02-16T06:42:40;2.00;;;0.90;;
83550;SDS011;74617;47.082;15.524;2024-02-16T06:45:05;2.15;;;0.55;;
83550;SDS011;74617;47.082;15.524;2024-02-16T06:47:31;2.70;;;0.95;;
83550;SDS011;74617;47.082;15.524;2024-02-16T06:49:57;1.35;;;0.77;;
83550;SDS011;74617;47.082;15.524;2024-02-16T06:52:22;1.27;;;0.55;;
83550;SDS011;74617;47.082;15.524;2024-02-16T06:54:47;1.85;;;0.90;;
83550;SDS011;74617;47.082;15.524;2024-02-16T06:57:15;1.88;;;0.77;;
83550;SDS011;74617;47.082;15.524;2024-02-16T06:59:40;1.25;;;0.70;;
83550;SDS011;74617;47.082;15.524;2024-02-16T07:02:06;1.83;;;0.77;;
83550;SDS011;74617;47.082;15.524;2024-02-16T07:04:32;2.67;;;0.98;;
83550;SDS011;74617;47.082;15.524;2024-02-16T07:06:57;2.88;;;1.10;;
83550;SDS011;74617;47.082;15.524;2024-02-16T07:09:23;2.85;;;1.25;;
83550;SDS011;74617;47.082;15.524;2024-02-16T07:11:48;3.30;;;1.25;;
83550;SDS011;74617;47.082;15.524;2024-02-16T07:14:15;2.90;;;1.30;;
83550;SDS011;74617;47.082;15.524;2024-02-16T07:16:41;2.88;;;1.40;;
83550;SDS011;74617;47.082;15.524;2024-02-16T07:19:06;3.10;;;1.40;;
83550;SDS011;74617;47.082;15.524;2024-02-16T07:21:32;2.80;;;1.38;;
83550;SDS011;74617;47.082;15.524;2024-02-16T07:23:57;3.50;;;1.52;;
83550;SDS011;74617;47.082;15.524;2024-02-16T07:26:23;3.42;;;1.50;;
83550;SDS011;74617;47.082;15.524;2024-02-16T07:28:49;2.75;;;1.20;;
83550;SDS011;74617;47.082;15.524;2024-02-16T07:31:14;2.83;;;1.23;;
83550;SDS011;74617;47.082;15.524;2024-02-16T07:33:40;2.72;;;1.40;;
83550;SDS011;74617;47.082;15.524;2024-02-16T07:36:06;4.50;;;1.60;;
83550;SDS011;74617;47.082;15.524;2024-02-16T07:38:32;3.45;;;1.58;;
83550;SDS011;74617;47.082;15.524;2024-02-16T07:40:58;4.68;;;1.77;;
83550;SDS011;74617;47.082;15.524;2024-02-16T07:43:24;4.75;;;1.88;;
83550;SDS011;74617;47.082;15.524;2024-02-16T07:45:50;3.45;;;1.52;;
83550;SDS011;74617;47.082;15.524;2024-02-16T07:48:18;2.60;;;1.58;;
83550;SDS011;74617;47.082;15.524;2024-02-16T07:50:44;3.05;;;1.45;;
83550;SDS011;74617;47.082;15.524;2024-02-16T07:53:10;3.97;;;1.85;;
83550;SDS011;74617;47.082;15.524;2024-02-16T07:55:36;3.97;;;1.55;;
83550;SDS011;74617;47.082;15.524;2024-02-16T07:58:02;5.70;;;1.90;;
83550;SDS011;74617;47.082;15.524;2024-02-16T08:00:27;2.92;;;1.67;;
83550;SDS011;74617;47.082;15.524;2024-02-16T08:02:53;2.63;;;1.40;;
83550;SDS011;74617;47.082;15.524;2024-02-16T08:05:19;11.77;;;2.60;;
83550;SDS011;74617;47.082;15.524;2024-02-16T08:07:45;6.70;;;1.95;;
83550;SDS011;74617;47.082;15.524;2024-02-16T08:10:12;6.05;;;1.80;;
83550;SDS011;74617;47.082;15.524;2024-02-16T08:12:37;5.18;;;1.55;;
83550;SDS011;74617;47.082;15.524;2024-02-16T08:15:04;4.57;;;1.40;;
83550;SDS011;74617;47.082;15.524;2024-02-16T08:17:32;7.82;;;1.50;;
83550;SDS011;74617;47.082;15.524;2024-02-16T08:20:00;2.67;;;1.40;;
83550;SDS011;74617;47.082;15.524;2024-02-16T08:22:25;7.93;;;1.70;;
83550;SDS011;74617;47.082;15.524;2024-02-16T08:24:51;7.85;;;1.63;;
83550;SDS011;74617;47.082;15.524;2024-02-16T08:27:17;4.90;;;1.67;;
83550;SDS011;74617;47.082;15.524;2024-02-16T08:29:43;3.28;;;1.40;;
83550;SDS011;74617;47.082;15.524;2024-02-16T08:32:08;2.83;;;1.20;;
83550;SDS011;74617;47.082;15.524;2024-02-16T08:34:35;4.40;;;1.70;;
83550;SDS011;74617;47.082;15.524;2024-02-16T08:37:02;4.57;;;1.90;;
83550;SDS011;74617;47.082;15.524;2024-02-16T08:39:28;3.00;;;1.33;;
83550;SDS011;74617;47.082;15.524;2024-02-16T08:41:54;6.28;;;1.67;;
83550;SDS011;74617;47.082;15.524;2024-02-16T08:44:20;3.67;;;1.50;;
83550;SDS011;74617;47.082;15.524;2024-02-16T08:46:45;2.65;;;1.23;;
83550;SDS011;74617;47.082;15.524;2024-02-16T08:49:13;4.10;;;1.65;;
83550;SDS011;74617;47.082;15.524;2024-02-16T08:51:39;3.75;;;1.83;;
83550;SDS011;74617;47.082;15.524;2024-02-16T08:54:04;4.53;;;1.58;;
83550;SDS011;74617;47.082;15.524;2024-02-16T08:56:30;5.10;;;1.52;;
83550;SDS011;74617;47.082;15.524;2024-02-16T08:58:56;5.10;;;1.42;;
83550;SDS011;74617;47.082;15.524;2024-02-16T09:01:35;2.83;;;1.40;;
83550;SDS011;74617;47.082;15.524;2024-02-16T09:04:01;2.85;;;1.30;;
83550;SDS011;74617;47.082;15.524;2024-02-16T09:06:27;3.08;;;1.52;;
83550;SDS011;74617;47.082;15.524;2024-02-16T09:08:53;4.07;;;1.55;;
83550;SDS011;74617;47.082;15.524;2024-02-16T09:11:19;2.83;;;1.50;;
83550;SDS011;74617;47.082;15.524;2024-02-16T09:13:44;2.22;;;0.90;;
83550;SDS011;74617;47.082;15.524;2024-02-16T09:16:10;3.67;;;1.30;;
83550;SDS011;74617;47.082;15.524;2024-02-16T09:18:35;4.63;;;1.40;;
83550;SDS011;74617;47.082;15.524;2024-02-16T09:21:04;5.30;;;1.65;;
83550;SDS011;74617;47.082;15.524;2024-02-16T09:23:30;1.73;;;0.95;;
83550;SDS011;74617;47.082;15.524;2024-02-16T09:25:56;3.80;;;1.42;;
83550;SDS011;74617;47.082;15.524;2024-02-16T09:28:22;3.20;;;1.27;;
83550;SDS011;74617;47.082;15.524;2024-02-16T09:30:47;2.83;;;1.33;;
83550;SDS011;74617;47.082;15.524;2024-02-16T09:33:13;3.33;;;1.23;;
83550;SDS011;74617;47.082;15.524;2024-02-16T09:35:39;3.50;;;1.33;;
83550;SDS011;74617;47.082;15.524;2024-02-16T09:38:05;3.33;;;1.40;;
83550;SDS011;74617;47.082;15.524;2024-02-16T09:40:30;3.03;;;1.38;;
83550;SDS011;74617;47.082;15.524;2024-02-16T09:42:56;2.50;;;1.25;;
83550;SDS011;74617;47.082;15.524;2024-02-16T09:45:21;2.97;;;1.20;;
83550;SDS011;74617;47.082;15.524;2024-02-16T09:47:49;2.35;;;1.25;;
83550;SDS011;74617;47.082;15.524;2024-02-16T09:50:15;3.40;;;1.30;;
83550;SDS011;74617;47.082;15.524;2024-02-16T09:52:41;2.55;;;1.27;;
83550;SDS011;74617;47.082;15.524;2024-02-16T09:55:12;4.75;;;1.27;;
83550;SDS011;74617;47.082;15.524;2024-02-16T09:57:38;2.45;;;1.25;;
83550;SDS011;74617;47.082;15.524;2024-02-16T10:00:04;2.47;;;1.08;;
83550;SDS011;74617;47.082;15.524;2024-02-16T10:02:42;1.83;;;1.00;;
83550;SDS011;74617;47.082;15.524;2024-02-16T10:07:41;4.07;;;1.50;;
83550;SDS011;74617;47.082;15.524;2024-02-16T10:10:19;1.77;;;0.90;;
83550;SDS011;74617;47.082;15.524;2024-02-16T10:12:48;3.63;;;1.50;;
83550;SDS011;74617;47.082;15.524;2024-02-16T10:15:22;2.97;;;1.17;;
83550;SDS011;74617;47.082;15.524;2024-02-16T10:20:26;2.90;;;1.50;;
83550;SDS011;74617;47.082;15.524;2024-02-16T10:28:12;1.75;;;1.00;;
83550;SDS011;74617;47.082;15.524;2024-02-16T10:30:39;1.73;;;0.85;;
83550;SDS011;74617;47.082;15.524;2024-02-16T10:33:08;1.67;;;0.90;;
83550;SDS011;74617;47.082;15.524;2024-02-16T10:35:37;2.42;;;1.27;;
83550;SDS011;74617;47.082;15.524;2024-02-16T10:38:03;3.85;;;1.15;;
83550;SDS011;74617;47.082;15.524;2024-02-16T10:40:37;4.75;;;1.35;;
83550;SDS011;74617;47.082;15.524;2024-02-16T10:43:04;1.88;;;1.20;;
83550;SDS011;74617;47.082;15.524;2024-02-16T10:45:36;2.67;;;1.00;;
83550;SDS011;74617;47.082;15.524;2024-02-16T10:48:03;2.30;;;1.38;;
83550;SDS011;74617;47.082;15.524;2024-02-16T10:50:31;3.28;;;1.20;;
83550;SDS011;74617;47.082;15.524;2024-02-16T10:52:59;6.68;;;2.45;;
83550;SDS011;74617;47.082;15.524;2024-02-16T10:55:28;10.40;;;2.90;;
83550;SDS011;74617;47.082;15.524;2024-02-16T10:57:55;7.15;;;1.92;;
83550;SDS011;74617;47.082;15.524;2024-02-16T11:00:21;6.47;;;2.20;;
83550;SDS011;74617;47.082;15.524;2024-02-16T11:02:51;4.72;;;2.28;;
83550;SDS011;74617;47.082;15.524;2024-02-16T11:05:18;4.15;;;1.98;;
83550;SDS011;74617;47.082;15.524;2024-02-16T11:07:44;6.70;;;2.58;;
83550;SDS011;74617;47.082;15.524;2024-02-16T11:10:11;5.68;;;2.58;;
83550;SDS011;74617;47.082;15.524;2024-02-16T11:12:37;5.18;;;1.80;;
83550;SDS011;74617;47.082;15.524;2024-02-16T11:15:04;4.10;;;1.88;;
83550;SDS011;74617;47.082;15.524;2024-02-16T11:17:33;4.35;;;1.90;;
83550;SDS011;74617;47.082;15.524;2024-02-16T11:20:00;6.53;;;1.95;;
83550;SDS011;74617;47.082;15.524;2024-02-16T11:22:26;5.28;;;1.55;;
83550;SDS011;74617;47.082;15.524;2024-02-16T11:24:53;5.18;;;2.28;;
83550;SDS011;74617;47.082;15.524;2024-02-16T11:27:19;6.60;;;2.28;;
83550;SDS011;74617;47.082;15.524;2024-02-16T11:29:46;8.80;;;1.88;;
83550;SDS011;74617;47.082;15.524;2024-02-16T11:32:12;5.88;;;1.55;;
83550;SDS011;74617;47.082;15.524;2024-02-16T11:34:37;5.47;;;1.60;;
83550;SDS011;74617;47.082;15.524;2024-02-16T11:37:03;4.60;;;2.55;;
83550;SDS011;74617;47.082;15.524;2024-02-16T11:39:30;3.67;;;1.60;;
83550;SDS011;74617;47.082;15.524;2024-02-16T11:42:00;5.70;;;2.10;;
83550;SDS011;74617;47.082;15.524;2024-02-16T11:44:32;4.40;;;1.77;;
83550;SDS011;74617;47.082;15.524;2024-02-16T11:47:00;3.90;;;1.63;;
83550;SDS011;74617;47.082;15.524;2024-02-16T11:49:30;3.25;;;1.52;;
83550;SDS011;74617;47.082;15.524;2024-02-16T11:51:56;8.65;;;2.25;;
83550;SDS011;74617;47.082;15.524;2024-02-16T11:54:21;3.75;;;1.35;;
83550;SDS011;74617;47.082;15.524;2024-02-16T11:56:47;5.05;;;2.03;;
83550;SDS011;74617;47.082;15.524;2024-02-16T11:59:16;5.22;;;2.05;;
83550;SDS011;74617;47.082;15.524;2024-02-16T12:01:52;3.08;;;1.02;;
83550;SDS011;74617;47.082;15.524;2024-02-16T12:04:21;9.90;;;2.10;;
83550;SDS011;74617;47.082;15.524;2024-02-16T12:06:47;7.20;;;2.40;;
83550;SDS011;74617;47.082;15.524;2024-02-16T12:09:15;5.30;;;1.85;;
83550;SDS011;74617;47.082;15.524;2024-02-16T12:11:43;4.95;;;2.00;;
83550;SDS011;74617;47.082;15.524;2024-02-16T12:14:09;6.43;;;1.73;;
83550;SDS011;74617;47.082;15.524;2024-02-16T12:16:36;4.60;;;1.48;;
83550;SDS011;74617;47.082;15.524;2024-02-16T12:19:03;6.05;;;1.80;;
83550;SDS011;74617;47.082;15.524;2024-02-16T12:21:30;4.90;;;1.90;;
83550;SDS011;74617;47.082;15.524;2024-02-16T12:23:55;4.00;;;1.38;;
83550;SDS011;74617;47.082;15.524;2024-02-16T12:26:21;4.13;;;1.92;;
83550;SDS011;74617;47.082;15.524;2024-02-16T12:28:47;4.72;;;1.98;;
83550;SDS011;74617;47.082;15.524;2024-02-16T12:31:20;4.97;;;1.73;;
83550;SDS011;74617;47.082;15.524;2024-02-16T12:33:46;8.70;;;2.05;;
83550;SDS011;74617;47.082;15.524;2024-02-16T12:36:12;5.18;;;2.10;;
83550;SDS011;74617;47.082;15.524;2024-02-16T12:38:37;5.50;;;2.25;;
83550;SDS011;74617;47.082;15.524;2024-02-16T12:41:02;8.60;;;2.17;;
83550;SDS011;74617;47.082;15.524;2024-02-16T12:43:28;3.92;;;1.77;;
83550;SDS011;74617;47.082;15.524;2024-02-16T12:45:54;6.10;;;2.03;;
83550;SDS011;74617;47.082;15.524;2024-02-16T12:48:20;4.82;;;1.77;;
83550;SDS011;74617;47.082;15.524;2024-02-16T12:50:45;6.05;;;2.08;;
83550;SDS011;74617;47.082;15.524;2024-02-16T12:53:12;5.55;;;2.55;;
83550;SDS011;74617;47.082;15.524;2024-02-16T12:55:37;5.78;;;1.98;;
83550;SDS011;74617;47.082;15.524;2024-02-16T12:58:03;8.35;;;1.90;;
83550;SDS011;74617;47.082;15.524;2024-02-16T13:00:29;4.55;;;1.83;;
83550;SDS011;74617;47.082;15.524;2024-02-16T13:02:54;4.32;;;2.03;;
83550;SDS011;74617;47.082;15.524;2024-02-16T13:05:20;5.00;;;1.98;;
83550;SDS011;74617;47.082;15.524;2024-02-16T13:07:46;6.65;;;1.85;;
83550;SDS011;74617;47.082;15.524;2024-02-16T13:10:12;5.60;;;1.98;;
83550;SDS011;74617;47.082;15.524;2024-02-16T13:12:37;8.20;;;2.15;;
83550;SDS011;74617;47.082;15.524;2024-02-16T13:15:04;4.75;;;1.88;;
83550;SDS011;74617;47.082;15.524;2024-02-16T13:17:32;3.05;;;1.83;;
83550;SDS011;74617;47.082;15.524;2024-02-16T13:19:58;7.68;;;1.70;;
83550;SDS011;74617;47.082;15.524;2024-02-16T13:22:31;5.00;;;1.90;;
83550;SDS011;74617;47.082;15.524;2024-02-16T13:24:57;5.68;;;1.55;;
83550;SDS011;74617;47.082;15.524;2024-02-16T13:27:22;6.00;;;1.85;;
83550;SDS011;74617;47.082;15.524;2024-02-16T13:29:47;6.97;;;2.10;;
83550;SDS011;74617;47.082;15.524;2024-02-16T13:32:13;7.00;;;1.90;;
83550;SDS011;74617;47.082;15.524;2024-02-16T13:34:38;3.78;;;1.80;;
83550;SDS011;74617;47.082;15.524;2024-02-16T13:37:04;4.35;;;1.65;;
83550;SDS011;74617;47.082;15.524;2024-02-16T13:39:30;3.92;;;1.75;;
83550;SDS011;74617;47.082;15.524;2024-02-16T13:41:55;4.25;;;1.35;;
83550;SDS011;74617;47.082;15.524;2024-02-16T13:44:22;4.38;;;1.60;;
83550;SDS011;74617;47.082;15.524;2024-02-16T13:46:48;6.55;;;1.80;;
83550;SDS011;74617;47.082;15.524;2024-02-16T13:49:14;4.65;;;1.67;;
83550;SDS011;74617;47.082;15.524;2024-02-16T13:51:40;5.72;;;2.15;;
83550;SDS011;74617;47.082;15.524;2024-02-16T13:54:06;7.43;;;1.70;;
83550;SDS011;74617;47.082;15.524;2024-02-16T13:56:33;5.45;;;1.63;;
83550;SDS011;74617;47.082;15.524;2024-02-16T13:59:00;3.13;;;1.85;;
83550;SDS011;74617;47.082;15.524;2024-02-16T14:01:26;6.57;;;1.75;;
83550;SDS011;74617;47.082;15.524;2024-02-16T14:03:52;3.47;;;1.75;;
83550;SDS011;74617;47.082;15.524;2024-02-16T14:06:18;6.68;;;1.75;;
83550;SDS011;74617;47.082;15.524;2024-02-16T14:08:43;4.93;;;1.20;;
83550;SDS011;74617;47.082;15.524;2024-02-16T14:11:09;6.68;;;2.10;;
83550;SDS011;74617;47.082;15.524;2024-02-16T14:13:34;5.55;;;1.73;;
83550;SDS011;74617;47.082;15.524;2024-02-16T14:16:00;5.55;;;1.80;;
83550;SDS011;74617;47.082;15.524;2024-02-16T14:18:26;4.95;;;1.80;;
83550;SDS011;74617;47.082;15.524;2024-02-16T14:20:51;4.07;;;1.63;;
83550;SDS011;74617;47.082;15.524;2024-02-16T14:23:17;4.43;;;1.30;;
83550;SDS011;74617;47.082;15.524;2024-02-16T14:25:42;4.45;;;1.60;;
83550;SDS011;74617;47.082;15.524;2024-02-16T14:28:08;5.70;;;2.00;;
83550;SDS011;74617;47.082;15.524;2024-02-16T14:30:33;5.28;;;1.48;;
83550;SDS011;74617;47.082;15.524;2024-02-16T14:32:59;4.78;;;1.80;;
83550;SDS011;74617;47.082;15.524;2024-02-16T14:35:24;5.95;;;1.98;;
83550;SDS011;74617;47.082;15.524;2024-02-16T14:37:50;6.47;;;1.88;;